createdAt,value
2017-09-09T00:00:24.260Z,15.59
2017-09-09T00:01:24.284Z,15.47
2017-09-09T00:02:38.924Z,15.5
2017-09-09T00:03:24.329Z,15.51
2017-09-09T00:04:24.344Z,15.41
2017-09-09T00:05:24.063Z,15.5
2017-09-09T00:06:24.077Z,15.47
2017-09-09T00:07:24.410Z,15.47
2017-09-09T00:08:24.135Z,15.47
2017-09-09T00:09:24.454Z,15.47
2017-09-09T00:10:24.177Z,15.44
2017-09-09T00:11:23.892Z,15.46
2017-09-09T00:12:24.530Z,15.47
2017-09-09T00:13:24.558Z,15.39
2017-09-09T00:14:24.567Z,15.36
2017-09-09T00:15:24.614Z,15.27
2017-09-09T00:16:24.306Z,15.32
2017-09-09T00:17:24.025Z,15.27
2017-09-09T00:19:24.413Z,15.31
2017-09-09T00:20:24.720Z,15.2
2017-09-09T00:21:24.414Z,15.25
2017-09-09T00:22:24.761Z,15.27
2017-09-09T00:23:24.783Z,15.28
2017-09-09T00:24:24.805Z,15.27
2017-09-09T00:25:24.829Z,15.25
2017-09-09T00:26:24.539Z,15.31
2017-09-09T00:27:24.869Z,15.25
2017-09-09T00:28:24.907Z,15.25
2017-09-09T00:29:24.907Z,15.2
2017-09-09T00:30:39.587Z,15.14
2017-09-09T00:31:24.960Z,15.25
2017-09-09T00:32:39.295Z,15.27
2017-09-09T00:33:39.311Z,15.19
2017-09-09T00:34:25.035Z,15.25
2017-09-09T00:35:25.062Z,15.25
2017-09-09T00:37:25.102Z,15.28
2017-09-09T00:38:25.124Z,15.25
2017-09-09T00:39:25.137Z,15.29
2017-09-09T00:40:25.167Z,15.23
2017-09-09T00:41:25.189Z,15.19
2017-09-09T00:42:24.593Z,15.14
2017-09-09T00:43:25.244Z,15.17
2017-09-09T00:44:25.262Z,15.1
2017-09-09T00:45:25.274Z,15.1
2017-09-09T00:46:25.297Z,15.13
2017-09-09T00:47:25.318Z,15.13
2017-09-09T00:48:25.339Z,15.11
2017-09-09T00:49:25.368Z,15.16
2017-09-09T00:50:25.070Z,15.13
2017-09-09T00:51:40.024Z,15.23
2017-09-09T00:52:25.435Z,15.25
2017-09-09T00:53:25.144Z,15.27
2017-09-09T00:54:25.479Z,15.25
2017-09-09T00:55:25.187Z,15.21
2017-09-09T00:56:25.521Z,15.32
2017-09-09T00:57:25.551Z,15.28
2017-09-09T00:58:25.584Z,15.28
2017-09-09T00:59:40.214Z,15.31
2017-09-09T01:00:25.623Z,15.31
2017-09-09T01:01:25.649Z,15.23
2017-09-09T01:02:25.672Z,15.34
2017-09-09T01:04:25.405Z,15.28
2017-09-09T01:05:40.350Z,15.29
2017-09-09T01:06:25.746Z,15.32
2017-09-09T01:07:40.387Z,15.31
2017-09-09T01:08:25.806Z,15.31
2017-09-09T01:09:25.824Z,15.25
2017-09-09T01:10:25.844Z,15.28
2017-09-09T01:11:40.492Z,15.27
2017-09-09T01:12:25.889Z,15.23
2017-09-09T01:13:25.905Z,15.29
2017-09-09T01:14:25.931Z,15.35
2017-09-09T01:15:25.962Z,15.31
2017-09-09T01:16:25.971Z,15.34
2017-09-09T01:17:25.691Z,15.36
2017-09-09T01:18:26.019Z,15.41
2017-09-09T01:19:25.736Z,15.47
2017-09-09T01:20:26.060Z,15.44
2017-09-09T01:21:40.712Z,15.46
2017-09-09T01:22:25.813Z,15.41
2017-09-09T01:24:25.849Z,15.25
2017-09-09T01:25:26.188Z,15.29
2017-09-09T01:26:25.900Z,15.36
2017-09-09T01:27:25.923Z,15.34
2017-09-09T01:28:26.250Z,15.29
2017-09-09T01:29:26.287Z,15.31
2017-09-09T01:30:26.292Z,15.32
2017-09-09T01:31:26.308Z,15.21
2017-09-09T01:32:26.344Z,15.29
2017-09-09T01:33:26.371Z,15.36
2017-09-09T01:34:26.374Z,15.27
2017-09-09T01:35:26.409Z,15.31
2017-09-09T01:36:26.423Z,15.29
2017-09-09T01:37:40.765Z,15.32
2017-09-09T01:38:26.485Z,15.29
2017-09-09T01:39:26.501Z,15.29
2017-09-09T01:40:26.529Z,15.31
2017-09-09T01:42:26.570Z,15.25
2017-09-09T01:43:26.582Z,15.28
2017-09-09T01:45:26.327Z,15.25
2017-09-09T01:46:26.661Z,15.2
2017-09-09T01:47:26.685Z,15.21
2017-09-09T01:48:26.707Z,15.2
2017-09-09T01:49:26.719Z,15.19
2017-09-09T01:50:26.743Z,15.28
2017-09-09T01:51:26.769Z,15.31
2017-09-09T01:52:26.793Z,15.32
2017-09-09T01:53:41.441Z,15.36
2017-09-09T01:54:26.842Z,15.41
2017-09-09T01:55:26.864Z,15.41
2017-09-09T01:56:26.881Z,15.39
2017-09-09T01:57:26.919Z,15.41
2017-09-09T01:58:26.928Z,15.46
2017-09-09T01:59:26.324Z,15.46
2017-09-09T02:00:26.974Z,15.44
2017-09-09T02:01:26.997Z,15.51
2017-09-09T02:02:27.035Z,15.54
2017-09-09T02:03:27.051Z,15.53
2017-09-09T02:04:27.055Z,15.62
2017-09-09T02:05:27.080Z,15.57
2017-09-09T02:06:27.114Z,15.54
2017-09-09T02:07:27.186Z,15.57
2017-09-09T02:08:41.779Z,15.54
2017-09-09T02:09:27.181Z,15.51
2017-09-09T02:10:26.895Z,15.57
2017-09-09T02:11:27.219Z,15.53
2017-09-09T02:12:27.245Z,15.56
2017-09-09T02:13:27.277Z,15.56
2017-09-09T02:14:27.295Z,15.56
2017-09-09T02:15:27.326Z,15.51
2017-09-09T02:16:27.343Z,15.5
2017-09-09T02:17:27.050Z,15.47
2017-09-09T02:18:27.374Z,15.5
2017-09-09T02:19:27.089Z,15.51
2017-09-09T02:20:27.427Z,15.53
2017-09-09T02:21:27.448Z,15.51
2017-09-09T02:22:27.161Z,15.56
2017-09-09T02:23:42.113Z,15.5
2017-09-09T02:24:27.520Z,15.46
2017-09-09T02:25:27.554Z,15.47
2017-09-09T02:26:27.254Z,15.46
2017-09-09T02:27:27.284Z,15.43
2017-09-09T02:28:27.345Z,15.43
2017-09-09T02:29:27.683Z,15.43
2017-09-09T02:30:27.344Z,15.49
2017-09-09T02:31:27.687Z,15.47
2017-09-09T02:32:27.403Z,15.39
2017-09-09T02:33:27.732Z,15.44
2017-09-09T02:34:27.449Z,15.39
2017-09-09T02:35:27.468Z,15.39
2017-09-09T02:36:27.794Z,15.46
2017-09-09T02:37:27.819Z,15.41
2017-09-09T02:38:27.848Z,15.46
2017-09-09T02:39:27.867Z,15.51
2017-09-09T02:40:42.496Z,15.49
2017-09-09T02:41:27.918Z,15.49
2017-09-09T02:42:27.939Z,15.43
2017-09-09T02:43:27.945Z,15.38
2017-09-09T02:44:27.968Z,15.44
2017-09-09T02:45:27.985Z,15.5
2017-09-09T02:47:28.086Z,15.41
2017-09-09T02:49:42.709Z,15.5
2017-09-09T02:50:28.118Z,15.44
2017-09-09T02:51:27.511Z,15.41
2017-09-09T02:52:28.156Z,15.44
2017-09-09T02:53:28.181Z,15.44
2017-09-09T02:54:28.207Z,15.43
2017-09-09T02:55:28.226Z,15.46
2017-09-09T02:56:42.867Z,15.46
2017-09-09T02:57:28.313Z,15.38
2017-09-09T02:58:28.288Z,15.47
2017-09-09T02:59:28.319Z,15.41
2017-09-09T03:01:28.349Z,15.41
2017-09-09T03:02:28.076Z,15.38
2017-09-09T03:03:28.090Z,15.46
2017-09-09T03:04:28.437Z,15.46
2017-09-09T03:05:28.443Z,15.41
2017-09-09T03:06:28.457Z,15.44
2017-09-09T03:07:28.180Z,15.43
2017-09-09T03:08:28.512Z,15.49
2017-09-09T03:10:28.250Z,15.51
2017-09-09T03:11:28.581Z,15.46
2017-09-09T03:12:43.226Z,15.5
2017-09-09T03:13:28.641Z,15.47
2017-09-09T03:14:28.661Z,15.49
2017-09-09T03:15:28.688Z,15.51
2017-09-09T03:16:28.697Z,15.54
2017-09-09T03:17:28.414Z,15.56
2017-09-09T03:18:28.741Z,15.57
2017-09-09T03:19:28.757Z,15.59
2017-09-09T03:20:28.785Z,15.6
2017-09-09T03:21:28.502Z,15.57
2017-09-09T03:22:28.824Z,15.51
2017-09-09T03:23:43.474Z,15.56
2017-09-09T03:24:28.907Z,15.56
2017-09-09T03:25:28.890Z,15.54
2017-09-09T03:26:43.542Z,15.49
2017-09-09T03:27:28.941Z,15.62
2017-09-09T03:28:43.581Z,15.56
2017-09-09T03:29:43.606Z,15.56
2017-09-09T03:30:29.016Z,15.56
2017-09-09T03:31:43.647Z,15.5
2017-09-09T03:32:29.052Z,15.57
2017-09-09T03:33:29.073Z,15.53
2017-09-09T03:34:29.105Z,15.5
2017-09-09T03:35:29.133Z,15.56
2017-09-09T03:36:28.835Z,15.54
2017-09-09T03:37:28.861Z,15.56
2017-09-09T03:38:29.186Z,15.54
2017-09-09T03:39:29.225Z,15.5
2017-09-09T03:40:29.243Z,15.51
2017-09-09T03:41:29.264Z,15.5
2017-09-09T03:42:29.286Z,15.51
2017-09-09T03:43:43.927Z,15.5
2017-09-09T03:44:29.330Z,15.51
2017-09-09T03:45:29.362Z,15.59
2017-09-09T03:46:29.373Z,15.53
2017-09-09T03:48:29.423Z,15.49
2017-09-09T03:49:29.446Z,15.47
2017-09-09T03:50:29.168Z,15.41
2017-09-09T03:51:29.507Z,15.47
2017-09-09T03:52:29.521Z,15.39
2017-09-09T03:53:44.158Z,15.46
2017-09-09T03:54:29.560Z,15.5
2017-09-09T03:55:29.569Z,15.44
2017-09-09T03:56:29.294Z,15.44
2017-09-09T03:57:29.312Z,15.43
2017-09-09T03:58:29.340Z,15.39
2017-09-09T04:00:29.386Z,15.5
2017-09-09T04:01:29.408Z,15.47
2017-09-09T04:02:29.433Z,15.41
2017-09-09T04:03:29.763Z,15.43
2017-09-09T04:04:29.806Z,15.34
2017-09-09T04:05:29.797Z,15.29
2017-09-09T04:06:29.832Z,15.36
2017-09-09T04:07:29.540Z,15.36
2017-09-09T04:08:29.561Z,15.28
2017-09-09T04:09:44.521Z,15.31
2017-09-09T04:10:29.935Z,15.31
2017-09-09T04:11:29.945Z,15.31
2017-09-09T04:12:29.965Z,15.41
2017-09-09T04:13:29.676Z,15.47
2017-09-09T04:14:30.011Z,15.44
2017-09-09T04:15:44.655Z,15.36
2017-09-09T04:16:30.049Z,15.39
2017-09-09T04:17:44.690Z,15.35
2017-09-09T04:18:30.104Z,15.47
2017-09-09T04:19:30.136Z,15.46
2017-09-09T04:20:30.145Z,15.46
2017-09-09T04:21:30.174Z,15.46
2017-09-09T04:22:30.188Z,15.47
2017-09-09T04:23:30.224Z,15.43
2017-09-09T04:24:44.861Z,15.41
2017-09-09T04:25:30.269Z,15.41
2017-09-09T04:26:30.294Z,15.49
2017-09-09T04:28:30.338Z,15.56
2017-09-09T04:29:30.041Z,15.54
2017-09-09T04:30:30.373Z,15.47
2017-09-09T04:31:45.016Z,15.47
2017-09-09T04:32:30.106Z,15.54
2017-09-09T04:33:30.444Z,15.5
2017-09-09T04:34:30.464Z,15.53
2017-09-09T04:35:30.500Z,15.47
2017-09-09T04:36:30.198Z,15.54
2017-09-09T04:37:45.158Z,15.54
2017-09-09T04:38:30.550Z,15.54
2017-09-09T04:39:30.593Z,15.59
2017-09-09T04:40:30.602Z,15.54
2017-09-09T04:41:45.244Z,15.57
2017-09-09T04:42:30.638Z,15.6
2017-09-09T04:43:30.678Z,15.56
2017-09-09T04:44:30.692Z,15.56
2017-09-09T04:45:30.703Z,15.49
2017-09-09T04:46:30.734Z,15.54
2017-09-09T04:47:45.065Z,15.57
2017-09-09T04:48:30.783Z,15.54
2017-09-09T04:49:30.796Z,15.6
2017-09-09T04:50:30.823Z,15.59
2017-09-09T04:51:30.863Z,15.62
2017-09-09T04:52:30.867Z,15.6
2017-09-09T04:53:30.891Z,15.67
2017-09-09T04:54:30.918Z,15.56
2017-09-09T04:55:30.928Z,15.67
2017-09-09T04:56:30.665Z,15.68
2017-09-09T04:57:30.981Z,15.71
2017-09-09T04:58:30.697Z,15.74
2017-09-09T04:59:31.035Z,15.72
2017-09-09T05:00:31.045Z,15.71
2017-09-09T05:01:31.081Z,15.65
2017-09-09T05:02:31.096Z,15.71
2017-09-09T05:04:31.148Z,15.67
2017-09-09T05:05:31.171Z,15.69
2017-09-09T05:06:31.190Z,15.65
2017-09-09T05:07:31.213Z,15.67
2017-09-09T05:08:31.227Z,15.68
2017-09-09T05:09:45.885Z,15.69
2017-09-09T05:10:31.277Z,15.76
2017-09-09T05:11:31.306Z,15.82
2017-09-09T05:13:31.049Z,15.83
2017-09-09T05:14:31.363Z,15.86
2017-09-09T05:15:31.400Z,15.9
2017-09-09T05:16:31.420Z,15.86
2017-09-09T05:17:31.447Z,15.87
2017-09-09T05:18:46.081Z,15.83
2017-09-09T05:20:31.195Z,15.92
2017-09-09T05:21:31.542Z,16
2017-09-09T05:22:31.567Z,16.01
2017-09-09T05:23:31.271Z,16.01
2017-09-09T05:24:31.609Z,16.05
2017-09-09T05:25:31.627Z,16.11
2017-09-09T05:26:31.651Z,16.09
2017-09-09T05:27:31.671Z,16.11
2017-09-09T05:28:31.683Z,16.15
2017-09-09T05:29:46.333Z,16.15
2017-09-09T05:30:31.762Z,16.15
2017-09-09T05:31:31.761Z,16.11
2017-09-09T05:32:31.788Z,16.11
2017-09-09T05:33:31.814Z,16.21
2017-09-09T05:34:31.835Z,16.23
2017-09-09T05:36:31.880Z,16.23
2017-09-09T05:37:31.894Z,16.24
2017-09-09T05:38:31.637Z,16.24
2017-09-09T05:39:31.943Z,16.2
2017-09-09T05:40:46.273Z,16.25
2017-09-09T05:41:31.996Z,16.2
2017-09-09T05:42:32.005Z,16.24
2017-09-09T05:43:32.044Z,16.17
2017-09-09T05:44:32.066Z,16.12
2017-09-09T05:45:32.077Z,16.11
2017-09-09T05:46:32.102Z,16.21
2017-09-09T05:47:32.148Z,16.12
2017-09-09T05:48:32.150Z,16.11
2017-09-09T05:49:32.175Z,16.21
2017-09-09T05:50:46.814Z,16.24
2017-09-09T05:51:46.831Z,16.15
2017-09-09T05:52:32.239Z,16.2
2017-09-09T05:54:32.280Z,16.31
2017-09-09T05:55:32.321Z,16.25
2017-09-09T05:56:32.331Z,16.28
2017-09-09T05:57:32.352Z,16.31
2017-09-09T05:58:32.394Z,16.35
2017-09-09T05:59:47.024Z,16.31
2017-09-09T06:00:32.427Z,16.42
2017-09-09T06:01:32.438Z,16.41
2017-09-09T06:02:32.474Z,16.39
2017-09-09T06:03:32.494Z,16.45
2017-09-09T06:04:32.518Z,16.45
2017-09-09T06:05:32.547Z,16.58
2017-09-09T06:06:46.872Z,16.67
2017-09-09T06:07:32.595Z,16.68
2017-09-09T06:08:32.299Z,16.75
2017-09-09T06:09:32.323Z,16.86
2017-09-09T06:11:32.687Z,17.08
2017-09-09T06:12:32.695Z,17.08
2017-09-09T06:13:32.417Z,17.15
2017-09-09T06:14:32.759Z,17.08
2017-09-09T06:15:32.766Z,17.11
2017-09-09T06:16:32.792Z,17.12
2017-09-09T06:17:32.813Z,17.23
2017-09-09T06:18:32.842Z,17.18
2017-09-09T06:19:32.549Z,17.19
2017-09-09T06:20:32.578Z,17.15
2017-09-09T06:21:32.928Z,17.21
2017-09-09T06:22:47.553Z,17.19
2017-09-09T06:23:32.951Z,17.19
2017-09-09T06:24:32.988Z,17.18
2017-09-09T06:25:33.012Z,17.15
2017-09-09T06:26:33.027Z,17.15
2017-09-09T06:28:32.758Z,17.19
2017-09-09T06:29:33.099Z,17.16
2017-09-09T06:30:33.118Z,17.3
2017-09-09T06:31:33.138Z,17.26
2017-09-09T06:32:33.229Z,17.26
2017-09-09T06:34:47.868Z,17.46
2017-09-09T06:35:32.927Z,17.38
2017-09-09T06:36:33.255Z,17.48
2017-09-09T06:37:33.284Z,17.55
2017-09-09T06:39:33.341Z,17.68
2017-09-09T06:40:33.358Z,17.81
2017-09-09T06:41:33.381Z,17.86
2017-09-09T06:42:33.098Z,18
2017-09-09T06:43:33.432Z,17.97
2017-09-09T06:44:33.452Z,18.11
2017-09-09T06:45:33.485Z,18.07
2017-09-09T06:46:33.500Z,18.25
2017-09-09T06:47:33.529Z,18.41
2017-09-09T06:48:33.537Z,18.41
2017-09-09T06:49:33.574Z,18.42
2017-09-09T06:50:33.637Z,18.51
2017-09-09T06:51:33.618Z,18.62
2017-09-09T06:52:33.645Z,18.6
2017-09-09T06:53:48.294Z,18.58
2017-09-09T06:54:33.372Z,18.62
2017-09-09T06:55:33.406Z,18.65
2017-09-09T06:56:33.741Z,18.72
2017-09-09T06:58:33.787Z,18.58
2017-09-09T06:59:33.817Z,18.6
2017-09-09T07:00:33.825Z,18.7
2017-09-09T07:01:33.852Z,18.69
2017-09-09T07:02:33.901Z,18.78
2017-09-09T07:03:33.900Z,18.73
2017-09-09T07:04:33.935Z,18.78
2017-09-09T07:05:33.637Z,18.84
2017-09-09T07:06:33.675Z,18.75
2017-09-09T07:07:34.004Z,18.87
2017-09-09T07:08:34.018Z,18.82
2017-09-09T07:09:34.055Z,18.88
2017-09-09T07:10:34.062Z,18.87
2017-09-09T07:11:33.790Z,18.9
2017-09-09T07:12:34.134Z,18.94
2017-09-09T07:13:33.533Z,18.9
2017-09-09T07:14:33.550Z,18.87
2017-09-09T07:15:34.190Z,18.85
2017-09-09T07:16:33.913Z,18.94
2017-09-09T07:18:34.269Z,18.95
2017-09-09T07:19:34.279Z,18.91
2017-09-09T07:20:34.007Z,18.98
2017-09-09T07:21:34.350Z,18.94
2017-09-09T07:22:34.365Z,19.13
2017-09-09T07:23:34.381Z,19.16
2017-09-09T07:25:49.052Z,19.19
2017-09-09T07:26:34.471Z,19.11
2017-09-09T07:27:34.478Z,19.14
2017-09-09T07:28:34.522Z,19.11
2017-09-09T07:29:34.531Z,19.16
2017-09-09T07:30:34.552Z,19.21
2017-09-09T07:31:34.283Z,19.13
2017-09-09T07:32:34.613Z,19.19
2017-09-09T07:33:34.643Z,19.32
2017-09-09T07:34:34.648Z,19.28
2017-09-09T07:35:34.684Z,19.29
2017-09-09T07:36:34.706Z,19.28
2017-09-09T07:37:34.729Z,19.19
2017-09-09T07:38:34.748Z,19.21
2017-09-09T07:40:34.801Z,19.22
2017-09-09T07:41:49.449Z,19.11
2017-09-09T07:42:34.840Z,19.13
2017-09-09T07:43:34.569Z,19.06
2017-09-09T07:45:34.966Z,19.08
2017-09-09T07:46:34.934Z,19.08
2017-09-09T07:47:34.972Z,19.04
2017-09-09T07:48:34.987Z,19.06
2017-09-09T07:49:35.017Z,18.91
2017-09-09T07:50:35.043Z,18.94
2017-09-09T07:51:35.065Z,18.76
2017-09-09T07:52:35.106Z,18.73
2017-09-09T07:53:35.120Z,18.75
2017-09-09T07:54:35.150Z,18.8
2017-09-09T07:55:35.162Z,18.75
2017-09-09T07:57:49.832Z,18.67
2017-09-09T07:58:35.245Z,18.62
2017-09-09T07:59:35.270Z,18.62
2017-09-09T08:00:35.293Z,18.65
2017-09-09T08:01:49.934Z,18.54
2017-09-09T08:02:34.705Z,18.47
2017-09-09T08:03:35.366Z,18.45
2017-09-09T08:04:35.113Z,18.41
2017-09-09T08:05:35.404Z,18.48
2017-09-09T08:06:35.421Z,18.35
2017-09-09T08:07:50.074Z,18.37
2017-09-09T08:08:35.473Z,18.5
2017-09-09T08:09:35.511Z,18.36
2017-09-09T08:10:35.532Z,18.35
2017-09-09T08:11:35.552Z,18.42
2017-09-09T08:12:35.270Z,18.51
2017-09-09T08:13:50.223Z,18.51
2017-09-09T08:14:35.623Z,18.35
2017-09-09T08:15:35.642Z,18.42
2017-09-09T08:17:35.705Z,18.45
2017-09-09T08:18:35.729Z,18.42
2017-09-09T08:19:50.371Z,18.41
2017-09-09T08:20:35.771Z,18.35
2017-09-09T08:21:35.804Z,18.41
2017-09-09T08:22:35.815Z,18.42
2017-09-09T08:23:50.468Z,18.32
2017-09-09T08:24:50.485Z,18.41
2017-09-09T08:25:35.273Z,18.42
2017-09-09T08:26:35.913Z,18.3
2017-09-09T08:27:35.931Z,18.29
2017-09-09T08:28:50.574Z,18.26
2017-09-09T08:29:35.986Z,18.2
2017-09-09T08:30:35.394Z,18.15
2017-09-09T08:31:36.034Z,18.14
2017-09-09T08:32:36.066Z,18.14
2017-09-09T08:33:35.769Z,18.17
2017-09-09T08:34:35.808Z,18.08
2017-09-09T08:35:35.827Z,18.12
2017-09-09T08:36:35.844Z,18.11
2017-09-09T08:37:35.552Z,18.11
2017-09-09T08:38:35.894Z,18.07
2017-09-09T08:39:36.240Z,18.11
2017-09-09T08:40:36.259Z,18.1
2017-09-09T08:42:36.293Z,18.07
2017-09-09T08:43:36.321Z,18.14
2017-09-09T08:45:36.368Z,18.1
2017-09-09T08:46:36.420Z,18.02
2017-09-09T08:48:36.447Z,18.03
2017-09-09T08:49:36.456Z,17.93
2017-09-09T08:50:36.497Z,18
2017-09-09T08:51:36.519Z,17.89
2017-09-09T08:52:36.531Z,18.07
2017-09-09T08:53:36.254Z,17.96
2017-09-09T08:54:36.278Z,17.99
2017-09-09T08:55:36.618Z,17.99
2017-09-09T08:56:36.626Z,17.9
2017-09-09T08:57:36.662Z,17.99
2017-09-09T08:58:36.672Z,17.93
2017-09-09T08:59:36.708Z,17.99
2017-09-09T09:00:51.349Z,17.92
2017-09-09T09:03:36.849Z,18.14
2017-09-09T09:04:36.827Z,18.1
2017-09-09T09:05:36.565Z,18.12
2017-09-09T09:06:36.885Z,18.11
2017-09-09T09:07:36.614Z,18.14
2017-09-09T09:08:36.928Z,18.14
2017-09-09T09:09:36.637Z,18.1
2017-09-09T09:10:36.352Z,18.15
2017-09-09T09:11:36.999Z,18.18
2017-09-09T09:13:36.725Z,18.32
2017-09-09T09:14:37.118Z,18.39
2017-09-09T09:15:36.775Z,18.39
2017-09-09T09:16:51.738Z,18.44
2017-09-09T09:17:36.840Z,18.35
2017-09-09T09:19:36.881Z,18.37
2017-09-09T09:20:36.892Z,18.23
2017-09-09T09:21:37.231Z,18.1
2017-09-09T09:22:36.638Z,18.2
2017-09-09T09:23:36.977Z,18.23
2017-09-09T09:24:36.998Z,18.33
2017-09-09T09:25:37.335Z,18.41
2017-09-09T09:26:37.034Z,18.47
2017-09-09T09:27:37.085Z,18.6
2017-09-09T09:28:37.099Z,18.62
2017-09-09T09:30:37.443Z,18.72
2017-09-09T09:31:37.156Z,18.84
2017-09-09T09:33:37.220Z,18.91
2017-09-09T09:34:51.854Z,18.95
2017-09-09T09:35:37.267Z,18.95
2017-09-09T09:36:37.294Z,18.94
2017-09-09T09:37:37.621Z,19.06
2017-09-09T09:38:37.643Z,19
2017-09-09T09:39:37.665Z,19.1
2017-09-09T09:40:37.396Z,19.04
2017-09-09T09:41:37.723Z,19.21
2017-09-09T09:42:37.444Z,19.16
2017-09-09T09:43:37.762Z,19.21
2017-09-09T09:44:52.409Z,19.23
2017-09-09T09:45:37.814Z,19.26
2017-09-09T09:46:37.845Z,19.31
2017-09-09T09:47:37.870Z,19.16
2017-09-09T09:48:52.501Z,19.21
2017-09-09T09:49:37.913Z,19.18
2017-09-09T09:50:37.927Z,19.08
2017-09-09T09:51:37.951Z,19.07
2017-09-09T09:52:37.986Z,19.08
2017-09-09T09:53:37.703Z,18.95
2017-09-09T09:54:38.022Z,18.85
2017-09-09T09:55:37.754Z,18.75
2017-09-09T09:56:38.073Z,18.69
2017-09-09T09:57:38.101Z,18.72
2017-09-09T09:58:38.134Z,18.69
2017-09-09T09:59:38.145Z,18.76
2017-09-09T10:01:37.895Z,18.76
2017-09-09T10:02:37.928Z,18.85
2017-09-09T10:03:52.874Z,18.82
2017-09-09T10:04:38.278Z,18.87
2017-09-09T10:05:37.994Z,18.84
2017-09-09T10:06:38.331Z,18.91
2017-09-09T10:07:38.360Z,18.94
2017-09-09T10:08:38.373Z,18.94
2017-09-09T10:09:38.393Z,18.94
2017-09-09T10:10:53.048Z,18.85
2017-09-09T10:11:38.470Z,18.9
2017-09-09T10:12:38.479Z,19.04
2017-09-09T10:13:53.117Z,19.1
2017-09-09T10:14:38.518Z,19.02
2017-09-09T10:15:38.556Z,19.06
2017-09-09T10:16:38.579Z,19.13
2017-09-09T10:17:38.601Z,19.14
2017-09-09T10:18:38.314Z,19.1
2017-09-09T10:19:38.638Z,19.14
2017-09-09T10:20:38.670Z,19.16
2017-09-09T10:21:38.690Z,19.23
2017-09-09T10:22:38.714Z,19.33
2017-09-09T10:23:38.741Z,19.39
2017-09-09T10:24:38.760Z,19.4
2017-09-09T10:25:38.789Z,19.48
2017-09-09T10:26:38.497Z,19.56
2017-09-09T10:27:38.830Z,19.58
2017-09-09T10:28:38.861Z,19.66
2017-09-09T10:29:38.879Z,19.56
2017-09-09T10:30:38.593Z,19.68
2017-09-09T10:31:38.629Z,19.62
2017-09-09T10:33:38.682Z,19.54
2017-09-09T10:34:38.696Z,19.55
2017-09-09T10:35:53.654Z,19.61
2017-09-09T10:36:38.747Z,19.61
2017-09-09T10:37:53.391Z,19.54
2017-09-09T10:38:53.716Z,19.43
2017-09-09T10:39:38.815Z,19.44
2017-09-09T10:40:39.165Z,19.36
2017-09-09T10:41:39.183Z,19.33
2017-09-09T10:42:39.203Z,19.36
2017-09-09T10:43:39.223Z,19.29
2017-09-09T10:44:39.250Z,19.29
2017-09-09T10:45:38.968Z,19.33
2017-09-09T10:46:39.305Z,19.29
2017-09-09T10:47:39.338Z,19.16
2017-09-09T10:48:39.357Z,19.18
2017-09-09T10:49:39.370Z,19.21
2017-09-09T10:50:54.013Z,19.25
2017-09-09T10:51:54.045Z,19.32
2017-09-09T10:52:39.143Z,19.29
2017-09-09T10:53:39.470Z,19.32
2017-09-09T10:54:39.502Z,19.37
2017-09-09T10:55:39.523Z,19.33
2017-09-09T10:56:39.230Z,19.36
2017-09-09T10:57:54.192Z,19.39
2017-09-09T10:58:39.598Z,19.31
2017-09-09T10:59:54.238Z,19.33
2017-09-09T11:00:39.639Z,19.33
2017-09-09T11:01:39.354Z,19.4
2017-09-09T11:02:39.730Z,19.33
2017-09-09T11:03:39.410Z,19.36
2017-09-09T11:04:39.734Z,19.4
2017-09-09T11:05:39.771Z,19.22
2017-09-09T11:06:39.778Z,19.19
2017-09-09T11:07:54.433Z,19.14
2017-09-09T11:08:39.834Z,19.07
2017-09-09T11:10:39.887Z,19.13
2017-09-09T11:11:39.597Z,18.98
2017-09-09T11:12:39.928Z,19.04
2017-09-09T11:13:54.587Z,19
2017-09-09T11:14:39.680Z,19
2017-09-09T11:15:40.007Z,19.06
2017-09-09T11:16:39.718Z,19.08
2017-09-09T11:18:40.090Z,19.18
2017-09-09T11:19:39.851Z,19.16
2017-09-09T11:20:40.131Z,19.25
2017-09-09T11:21:40.149Z,19.23
2017-09-09T11:22:40.178Z,19.21
2017-09-09T11:23:54.817Z,19.21
2017-09-09T11:24:40.238Z,19.25
2017-09-09T11:25:40.266Z,19.19
2017-09-09T11:26:54.588Z,19.19
2017-09-09T11:27:40.299Z,19.04
2017-09-09T11:28:40.018Z,18.99
2017-09-09T11:29:40.039Z,18.85
2017-09-09T11:30:40.378Z,18.78
2017-09-09T11:31:40.397Z,18.82
2017-09-09T11:32:40.426Z,18.87
2017-09-09T11:33:40.441Z,18.88
2017-09-09T11:34:40.166Z,18.78
2017-09-09T11:35:40.506Z,18.7
2017-09-09T11:36:40.533Z,18.58
2017-09-09T11:37:40.554Z,18.63
2017-09-09T11:38:55.191Z,18.57
2017-09-09T11:40:40.624Z,18.5
2017-09-09T11:41:40.658Z,18.55
2017-09-09T11:42:40.665Z,18.55
2017-09-09T11:43:40.701Z,18.48
2017-09-09T11:44:40.721Z,18.57
2017-09-09T11:45:40.751Z,18.51
2017-09-09T11:46:40.767Z,18.52
2017-09-09T11:47:40.802Z,18.47
2017-09-09T11:49:55.459Z,18.45
2017-09-09T11:50:40.856Z,18.52
2017-09-09T11:51:40.569Z,18.44
2017-09-09T11:52:55.526Z,18.42
2017-09-09T11:53:40.934Z,18.52
2017-09-09T11:54:40.960Z,18.47
2017-09-09T11:55:40.993Z,18.51
2017-09-09T11:56:40.709Z,18.51
2017-09-09T11:57:41.034Z,18.58
2017-09-09T11:58:55.669Z,18.5
2017-09-09T11:59:40.775Z,18.41
2017-09-09T12:00:41.121Z,18.45
2017-09-09T12:01:41.127Z,18.35
2017-09-09T12:02:41.154Z,18.39
2017-09-09T12:04:55.821Z,18.47
2017-09-09T12:05:40.614Z,18.5
2017-09-09T12:06:41.254Z,18.54
2017-09-09T12:07:41.270Z,18.62
2017-09-09T12:08:41.301Z,18.51
2017-09-09T12:09:41.322Z,18.54
2017-09-09T12:10:55.972Z,18.57
2017-09-09T12:11:41.053Z,18.62
2017-09-09T12:12:41.400Z,18.67
2017-09-09T12:13:40.803Z,18.58
2017-09-09T12:14:41.124Z,18.66
2017-09-09T12:16:41.484Z,18.78
2017-09-09T12:17:41.516Z,18.75
2017-09-09T12:18:56.164Z,18.9
2017-09-09T12:19:41.257Z,18.95
2017-09-09T12:20:41.582Z,18.98
2017-09-09T12:21:41.608Z,19.07
2017-09-09T12:22:56.257Z,19.13
2017-09-09T12:23:41.668Z,19.11
2017-09-09T12:24:41.369Z,19.08
2017-09-09T12:25:41.089Z,19.11
2017-09-09T12:26:56.356Z,19.04
2017-09-09T12:27:41.446Z,19.07
2017-09-09T12:28:41.775Z,19.06
2017-09-09T12:29:41.856Z,18.95
2017-09-09T12:30:41.530Z,18.9
2017-09-09T12:31:41.848Z,18.92
2017-09-09T12:32:41.565Z,18.91
2017-09-09T12:33:41.598Z,18.82
2017-09-09T12:34:56.552Z,18.88
2017-09-09T12:35:56.572Z,18.88
2017-09-09T12:37:42.009Z,18.87
2017-09-09T12:38:42.017Z,18.9
2017-09-09T12:39:42.040Z,19
2017-09-09T12:40:42.066Z,18.94
2017-09-09T12:41:42.100Z,18.92
2017-09-09T12:42:56.734Z,19.06
2017-09-09T12:43:41.840Z,19.18
2017-09-09T12:44:41.854Z,19.13
2017-09-09T12:45:56.823Z,19.28
2017-09-09T12:46:56.831Z,19.4
2017-09-09T12:47:41.937Z,19.39
2017-09-09T12:48:42.270Z,19.47
2017-09-09T12:49:41.995Z,19.43
2017-09-09T12:50:41.999Z,19.39
2017-09-09T12:51:42.030Z,19.36
2017-09-09T12:52:42.364Z,19.36
2017-09-09T12:53:42.395Z,19.4
2017-09-09T12:54:42.102Z,19.31
2017-09-09T12:55:42.441Z,19.31
2017-09-09T12:56:42.468Z,19.31
2017-09-09T12:57:42.489Z,19.13
2017-09-09T12:58:57.124Z,19.16
2017-09-09T12:59:42.535Z,19.02
2017-09-09T13:00:42.563Z,19.04
2017-09-09T13:01:42.590Z,19.02
2017-09-09T13:02:42.618Z,18.87
2017-09-09T13:03:42.631Z,18.91
2017-09-09T13:05:42.670Z,18.78
2017-09-09T13:06:42.394Z,18.76
2017-09-09T13:07:42.742Z,18.73
2017-09-09T13:08:42.763Z,18.85
2017-09-09T13:09:42.772Z,18.82
2017-09-09T13:10:42.814Z,18.91
2017-09-09T13:11:42.814Z,18.9
2017-09-09T13:12:42.890Z,18.9
2017-09-09T13:13:57.487Z,18.75
2017-09-09T13:14:42.582Z,18.73
2017-09-09T13:15:42.942Z,18.7
2017-09-09T13:16:57.561Z,18.65
2017-09-09T13:17:42.985Z,18.75
2017-09-09T13:18:43.002Z,18.7
2017-09-09T13:19:42.706Z,18.63
2017-09-09T13:20:43.048Z,18.7
2017-09-09T13:21:43.084Z,18.6
2017-09-09T13:22:42.790Z,18.55
2017-09-09T13:23:43.109Z,18.42
2017-09-09T13:24:43.143Z,18.44
2017-09-09T13:25:43.167Z,18.37
2017-09-09T13:26:43.197Z,18.39
2017-09-09T13:27:43.209Z,18.48
2017-09-09T13:28:43.236Z,18.48
2017-09-09T13:29:42.968Z,18.55
2017-09-09T13:30:43.288Z,18.47
2017-09-09T13:31:43.002Z,18.47
2017-09-09T13:32:43.334Z,18.48
2017-09-09T13:33:43.058Z,18.51
2017-09-09T13:34:43.386Z,18.5
2017-09-09T13:36:43.422Z,18.44
2017-09-09T13:37:43.464Z,18.36
2017-09-09T13:38:58.103Z,18.35
2017-09-09T13:39:43.505Z,18.39
2017-09-09T13:40:43.214Z,18.39
2017-09-09T13:41:43.237Z,18.5
2017-09-09T13:42:43.579Z,18.48
2017-09-09T13:43:43.591Z,18.54
2017-09-09T13:44:43.317Z,18.57